Hartford, Wisconsin
Current Conditions -  °F | °C
As of 12:15 PM on Thursday 27 Nov 2014 (Local Time) from KETB Reporting Station
Overcast Overcast  
Wind Chill:   Ceiling: 2300
Heat Index: 19°   Visibility: 10mi
Dew Point: 10°   Wind: 14mph
Humidity: 68%   Direction: 330°NNW
Pressure: 30.33"   Gusts: NA
Location:  43.32°N, 88.38°W
Report Text: KETB 271815Z AUTO 33012KT 10SM OVC023 M07/M12 A3033 RMK AO2
Loading
Personal Weather Stations






























Interactive Weather Map New forecast layout! Learn more

10-Day Weather Forecast

Advertisements
Track Severe Weather on mobile